createdAt,value
2018-09-21T00:02:18.394Z,92.40
2018-09-21T00:07:21.917Z,93.40
2018-09-21T00:12:25.745Z,93.30
2018-09-21T00:17:29.515Z,93.70
2018-09-21T00:22:33.600Z,94.40
2018-09-21T00:27:37.816Z,95.00
2018-09-21T00:32:41.608Z,96.30
2018-09-21T00:37:45.453Z,96.70
2018-09-21T00:42:49.001Z,96.90
2018-09-21T00:47:52.534Z,97.30
2018-09-21T00:52:56.097Z,97.30
2018-09-21T00:57:59.693Z,97.00
2018-09-21T01:03:04.209Z,97.10
2018-09-21T01:08:08.150Z,97.20
2018-09-21T01:13:12.325Z,96.70
2018-09-21T01:18:16.598Z,96.30
2018-09-21T01:23:20.144Z,96.30
2018-09-21T06:02:17.862Z,98.60
2018-09-21T06:07:21.569Z,99.10
2018-09-21T06:12:25.055Z,99.40
2018-09-21T06:17:28.621Z,99.40
2018-09-21T06:22:32.187Z,99.30
2018-09-21T06:27:35.641Z,98.90
2018-09-21T06:32:39.197Z,97.30
2018-09-21T06:37:42.628Z,85.90
2018-09-21T06:42:46.651Z,66.00
2018-09-21T06:47:50.588Z,53.20
2018-09-21T06:52:54.471Z,48.50
2018-09-21T06:57:58.182Z,44.20
2018-09-21T07:03:02.172Z,40.70
2018-09-21T07:08:06.366Z,38.90
2018-09-21T07:13:09.861Z,37.30
2018-09-21T07:18:13.325Z,36.20
2018-09-21T07:23:16.899Z,39.00
2018-09-21T07:28:20.837Z,40.60
2018-09-21T07:33:24.866Z,38.70
2018-09-21T07:38:28.756Z,36.90
2018-09-21T07:43:32.407Z,33.70
2018-09-21T07:48:35.924Z,32.10
2018-09-21T07:53:39.433Z,32.80
2018-09-21T07:58:42.912Z,34.10
2018-09-21T08:03:47.160Z,33.30
2018-09-21T08:08:50.895Z,36.80
2018-09-21T08:13:54.770Z,41.10
2018-09-21T08:18:58.631Z,43.00
2018-09-21T08:24:02.584Z,45.10
2018-09-21T08:29:06.301Z,50.30
2018-09-21T08:34:09.968Z,52.90
2018-09-21T08:39:13.431Z,56.30
2018-09-21T08:44:17.037Z,47.30
2018-09-21T08:49:20.524Z,41.70
2018-09-21T08:54:24.417Z,37.80
2018-09-21T08:59:28.348Z,40.80
2018-09-21T09:04:32.338Z,39.60
2018-09-21T09:09:35.915Z,38.30
2018-09-21T09:14:39.381Z,37.40
2018-09-21T09:19:43.236Z,35.20
2018-09-21T09:24:46.743Z,33.70
2018-09-21T09:29:50.576Z,38.40
2018-09-21T09:34:54.209Z,37.90
2018-09-21T09:39:58.400Z,37.70
2018-09-21T09:45:02.384Z,37.50
2018-09-21T09:50:06.856Z,39.80
2018-09-21T09:55:10.381Z,42.30
2018-09-21T10:00:14.119Z,42.60
2018-09-21T10:05:17.605Z,42.50
2018-09-21T10:10:21.188Z,43.40
2018-09-21T10:15:24.789Z,45.40
2018-09-21T10:20:28.412Z,44.50
2018-09-21T10:25:32.872Z,44.40
2018-09-21T10:30:37.365Z,45.20
2018-09-21T10:35:40.949Z,45.70
2018-09-21T10:40:44.515Z,47.00
2018-09-21T10:45:48.035Z,46.70
2018-09-21T10:50:51.590Z,47.60
2018-09-21T10:55:55.291Z,49.20
2018-09-21T11:00:58.809Z,49.90
2018-09-21T11:06:02.306Z,49.00
2018-09-21T11:11:06.205Z,48.00
2018-09-21T11:16:09.961Z,47.60
2018-09-21T11:21:14.005Z,48.40
2018-09-21T11:26:17.801Z,48.80
2018-09-21T11:31:21.389Z,48.90
2018-09-21T11:36:24.997Z,49.40
2018-09-21T11:41:28.781Z,47.90
2018-09-21T11:46:32.722Z,49.50
2018-09-21T11:51:36.455Z,48.30
2018-09-21T11:56:40.341Z,49.70
2018-09-21T12:01:44.304Z,49.00
2018-09-21T12:06:48.142Z,49.30
2018-09-21T12:11:51.722Z,49.20
2018-09-21T12:16:55.225Z,48.50
2018-09-21T12:21:58.877Z,48.00
2018-09-21T12:27:02.676Z,47.90
2018-09-21T12:32:07.087Z,48.70
2018-09-21T12:37:10.821Z,48.80
2018-09-21T12:42:14.596Z,49.40
2018-09-21T12:47:18.246Z,50.50
2018-09-21T12:52:22.140Z,49.90
2018-09-21T12:57:26.102Z,50.40
2018-09-21T13:02:30.144Z,51.50
2018-09-21T13:07:34.591Z,52.50
2018-09-21T13:12:38.321Z,53.30
2018-09-21T13:17:42.170Z,53.30
2018-09-21T13:22:46.592Z,53.10
2018-09-21T13:27:50.497Z,52.90
2018-09-21T13:32:54.012Z,52.90
2018-09-21T13:37:57.864Z,52.90
2018-09-21T13:43:01.390Z,52.00
2018-09-21T13:48:05.782Z,50.60
2018-09-21T13:53:09.890Z,49.60
2018-09-21T13:58:14.397Z,48.60
2018-09-21T14:03:18.268Z,48.70
2018-09-21T14:08:21.829Z,47.80
2018-09-21T14:13:25.758Z,47.10
2018-09-21T14:18:30.118Z,46.90
2018-09-21T14:23:34.058Z,47.40
2018-09-21T14:28:38.148Z,47.70
2018-09-21T14:33:42.206Z,47.50
2018-09-21T14:38:45.854Z,47.10
2018-09-21T14:43:49.361Z,47.80
2018-09-21T14:48:53.141Z,48.40
2018-09-21T14:53:56.679Z,47.20
2018-09-21T14:59:00.658Z,46.10
2018-09-21T15:04:04.302Z,45.80
2018-09-21T15:09:10.056Z,45.50
2018-09-21T15:14:13.682Z,46.40
2018-09-21T15:19:17.639Z,47.00
2018-09-21T15:24:22.231Z,48.50
2018-09-21T15:29:26.107Z,48.10
2018-09-21T15:34:29.925Z,48.40
2018-09-21T15:39:34.167Z,49.00
2018-09-21T15:44:51.622Z,49.10
2018-09-21T15:49:55.666Z,49.60
2018-09-21T15:54:59.498Z,50.50
2018-09-21T16:00:03.610Z,50.90
2018-09-21T16:05:07.663Z,53.70
2018-09-21T16:10:11.340Z,58.30
2018-09-21T16:15:18.055Z,61.90
2018-09-21T16:20:22.501Z,64.40
2018-09-21T16:25:28.494Z,66.30
2018-09-21T16:30:32.529Z,65.90
2018-09-21T16:35:36.726Z,66.90
2018-09-21T16:40:41.633Z,65.90
2018-09-21T16:45:45.173Z,67.00
2018-09-21T16:50:48.673Z,68.00
2018-09-21T16:55:52.745Z,67.90
2018-09-21T17:00:56.864Z,68.80
2018-09-21T17:06:01.434Z,66.10
2018-09-21T17:11:05.565Z,66.70
2018-09-21T17:16:09.426Z,66.10
2018-09-21T17:21:12.990Z,68.20
2018-09-21T17:26:16.610Z,69.00
2018-09-21T17:31:20.486Z,67.80
2018-09-21T17:36:24.569Z,67.60
2018-09-21T17:41:28.477Z,68.30
2018-09-21T17:46:32.430Z,67.10
2018-09-21T17:51:38.088Z,68.50
2018-09-21T17:56:42.676Z,66.80
2018-09-21T18:01:48.275Z,68.10
2018-09-21T18:06:58.762Z,67.50
2018-09-21T18:12:03.607Z,67.80
2018-09-21T18:17:14.622Z,67.40
2018-09-21T18:22:20.581Z,67.30
2018-09-21T18:27:26.609Z,68.70
2018-09-21T18:32:31.675Z,68.40
2018-09-21T18:37:37.136Z,69.40
2018-09-21T18:42:43.144Z,69.60
2018-09-21T18:47:46.743Z,70.10
2018-09-21T18:52:52.032Z,71.10
2018-09-21T18:58:01.793Z,71.60
2018-09-21T19:03:10.743Z,72.00
2018-09-21T19:08:23.619Z,73.50
2018-09-21T19:13:30.323Z,74.10
2018-09-21T19:18:35.714Z,75.70
2018-09-21T19:23:42.330Z,77.00
2018-09-21T19:28:47.579Z,78.60
2018-09-21T19:33:51.260Z,79.50
2018-09-21T19:38:55.132Z,79.80
2018-09-21T19:43:58.713Z,80.10
2018-09-21T19:49:02.372Z,80.30
2018-09-21T19:54:05.953Z,81.10
2018-09-21T19:59:09.607Z,81.20
2018-09-21T20:04:13.088Z,81.50
2018-09-21T20:09:16.722Z,81.70
2018-09-21T20:14:20.319Z,81.30
2018-09-21T20:19:23.840Z,81.10
2018-09-21T20:24:28.278Z,80.70
2018-09-21T20:29:32.820Z,81.30
2018-09-21T20:34:37.174Z,81.10
2018-09-21T20:39:40.686Z,81.50
2018-09-21T20:44:44.186Z,82.30
2018-09-21T20:49:47.948Z,82.10
2018-09-21T20:54:54.085Z,83.10
2018-09-21T20:59:58.575Z,83.70
2018-09-21T21:05:02.184Z,83.40
2018-09-21T21:10:26.499Z,83.70
2018-09-21T21:15:30.661Z,83.90
2018-09-21T21:20:34.282Z,83.90
2018-09-21T21:25:38.093Z,84.00
2018-09-21T21:30:47.657Z,84.70
2018-09-21T21:35:51.891Z,84.60
2018-09-21T21:40:56.745Z,85.20
2018-09-21T21:46:00.402Z,84.40
2018-09-21T21:51:03.949Z,84.30
2018-09-21T21:56:07.533Z,84.70
2018-09-21T22:01:16.238Z,84.10
2018-09-21T22:06:20.017Z,84.90
2018-09-21T22:11:28.784Z,85.00
2018-09-21T22:16:32.304Z,85.30
2018-09-21T22:21:35.830Z,85.20
2018-09-21T22:26:39.296Z,85.20
2018-09-21T22:31:42.900Z,85.30
2018-09-21T22:36:47.843Z,85.20
2018-09-21T22:41:52.212Z,85.30
2018-09-21T22:46:55.726Z,85.50
2018-09-21T22:51:59.207Z,85.20
2018-09-21T22:57:02.752Z,85.20
2018-09-21T23:02:06.455Z,84.70
2018-09-21T23:07:09.960Z,85.00
2018-09-21T23:12:13.974Z,84.70
2018-09-21T23:17:17.886Z,85.00
2018-09-21T23:22:21.706Z,85.20
2018-09-21T23:27:25.774Z,84.60
2018-09-21T23:32:29.929Z,84.50
2018-09-21T23:37:33.637Z,84.10
2018-09-21T23:42:37.254Z,82.80
2018-09-21T23:47:41.334Z,83.70
2018-09-21T23:52:45.361Z,83.60
2018-09-21T23:57:49.563Z,83.70
